createdAt,value
2023-09-01T00:00:34.448Z,15.10
2023-09-01T00:03:01.324Z,15.00
2023-09-01T00:05:28.087Z,15.00
2023-09-01T00:07:54.735Z,15.10
2023-09-01T00:10:21.433Z,15.10
2023-09-01T00:12:48.282Z,15.10
2023-09-01T00:15:15.000Z,15.10
2023-09-01T00:17:41.653Z,15.10
2023-09-01T00:20:08.593Z,15.10
2023-09-01T00:22:35.267Z,15.10
2023-09-01T00:25:02.046Z,15.10
2023-09-01T00:27:28.772Z,15.10
2023-09-01T00:29:55.458Z,15.10
2023-09-01T00:32:22.212Z,15.00
2023-09-01T00:34:56.081Z,15.00
2023-09-01T00:37:22.732Z,15.00
2023-09-01T00:39:50.047Z,14.90
2023-09-01T00:42:16.700Z,14.80
2023-09-01T00:44:43.585Z,14.90
2023-09-01T00:47:12.128Z,14.80
2023-09-01T00:49:39.326Z,14.80
2023-09-01T00:52:06.678Z,14.80
2023-09-01T00:54:34.148Z,14.80
2023-09-01T00:57:01.100Z,14.90
2023-09-01T00:59:27.796Z,14.90
2023-09-01T01:01:55.585Z,14.90
2023-09-01T01:04:23.165Z,14.90
2023-09-01T01:07:09.652Z,14.90
2023-09-01T01:09:54.845Z,14.90
2023-09-01T01:12:24.760Z,14.90
2023-09-01T01:14:54.258Z,14.90
2023-09-01T01:17:21.153Z,14.80
2023-09-01T01:19:51.291Z,14.80
2023-09-01T01:22:41.866Z,14.90
2023-09-01T01:25:12.155Z,14.90
2023-09-01T01:27:39.385Z,14.80
2023-09-01T01:30:06.386Z,14.80
2023-09-01T01:32:33.600Z,14.90
2023-09-01T01:35:00.289Z,14.90
2023-09-01T01:37:34.056Z,14.90
2023-09-01T01:40:02.993Z,14.90
2023-09-01T01:42:30.720Z,14.90
2023-09-01T01:44:58.179Z,14.90
2023-09-01T01:47:24.988Z,15.00
2023-09-01T01:49:51.769Z,15.00
2023-09-01T01:52:18.493Z,15.00
2023-09-01T01:54:45.158Z,15.00
2023-09-01T01:57:15.492Z,15.10
2023-09-01T01:59:42.709Z,15.10
2023-09-01T02:02:09.367Z,15.10
2023-09-01T02:04:36.750Z,15.10
2023-09-01T02:07:06.594Z,15.10
2023-09-01T02:09:34.185Z,15.10
2023-09-01T02:12:00.857Z,15.00
2023-09-01T02:14:27.604Z,15.10
2023-09-01T02:16:54.275Z,15.10
2023-09-01T02:19:20.963Z,15.10
2023-09-01T02:21:47.659Z,15.20
2023-09-01T02:24:14.415Z,15.20
2023-09-01T02:26:41.093Z,15.10
2023-09-01T02:29:07.743Z,15.10
2023-09-01T02:31:36.350Z,15.20
2023-09-01T02:34:05.897Z,15.10
2023-09-01T02:36:33.993Z,15.10
2023-09-01T02:39:01.283Z,15.10
2023-09-01T02:41:28.238Z,15.10
2023-09-01T02:43:55.147Z,15.10
2023-09-01T02:46:21.904Z,15.10
2023-09-01T02:48:48.680Z,15.20
2023-09-01T02:51:15.451Z,15.10
2023-09-01T02:53:42.287Z,15.20
2023-09-01T02:56:09.160Z,15.10
2023-09-01T02:58:36.369Z,15.20
2023-09-01T03:01:10.029Z,15.20
2023-09-01T03:03:37.850Z,15.10
2023-09-01T03:06:09.831Z,15.20
2023-09-01T03:08:37.152Z,15.20
2023-09-01T03:11:04.459Z,15.20
2023-09-01T03:13:31.712Z,15.20
2023-09-01T03:15:58.420Z,15.20
2023-09-01T03:18:25.504Z,15.20
2023-09-01T03:20:54.427Z,15.20
2023-09-01T03:23:21.523Z,15.20
2023-09-01T03:25:55.458Z,15.10
2023-09-01T03:28:22.276Z,15.10
2023-09-01T03:30:48.936Z,15.10
2023-09-01T03:33:15.792Z,15.10
2023-09-01T03:35:42.427Z,15.10
2023-09-01T03:38:09.073Z,15.10
2023-09-01T03:40:39.317Z,15.10
2023-09-01T03:43:09.159Z,15.10
2023-09-01T03:45:35.997Z,15.00
2023-09-01T03:48:02.837Z,15.00
2023-09-01T03:50:29.628Z,15.00
2023-09-01T03:52:56.298Z,15.00
2023-09-01T03:55:23.464Z,15.00
2023-09-01T03:57:50.253Z,15.00
2023-09-01T04:00:17.069Z,15.00
2023-09-01T04:02:43.725Z,15.10
2023-09-01T04:05:10.561Z,15.10
2023-09-01T04:07:37.275Z,15.10
2023-09-01T04:10:07.496Z,15.10
2023-09-01T04:12:35.441Z,15.10
2023-09-01T04:15:02.554Z,15.00
2023-09-01T04:17:29.341Z,15.00
2023-09-01T04:19:55.989Z,15.00
2023-09-01T04:22:22.641Z,15.00
2023-09-01T04:24:50.440Z,15.00
2023-09-01T04:27:17.210Z,15.10
2023-09-01T04:29:49.225Z,15.10
2023-09-01T04:32:19.069Z,15.10
2023-09-01T04:34:45.740Z,15.10
2023-09-01T04:37:12.563Z,15.10
2023-09-01T04:39:39.267Z,15.10
2023-09-01T04:42:06.151Z,15.10
2023-09-01T04:44:32.850Z,15.20
2023-09-01T04:46:59.581Z,15.20
2023-09-01T04:49:26.301Z,15.20
2023-09-01T04:51:52.985Z,15.20
2023-09-01T04:54:19.857Z,15.20
2023-09-01T04:56:46.496Z,15.10
2023-09-01T04:59:14.611Z,15.10
2023-09-01T05:01:41.797Z,15.10
2023-09-01T05:04:11.176Z,15.10
2023-09-01T05:06:37.962Z,15.10
2023-09-01T05:09:05.009Z,15.20
2023-09-01T05:11:31.677Z,15.20
2023-09-01T05:13:58.328Z,15.20
2023-09-01T05:16:25.010Z,15.20
2023-09-01T05:18:51.895Z,15.30
2023-09-01T05:21:18.554Z,15.30
2023-09-01T05:23:45.269Z,15.30
2023-09-01T05:26:11.992Z,15.30
2023-09-01T05:28:38.781Z,15.40
2023-09-01T05:31:05.609Z,15.40
2023-09-01T05:33:32.361Z,15.40
2023-09-01T05:35:59.079Z,15.50
2023-09-01T05:38:25.758Z,15.50
2023-09-01T05:40:57.028Z,15.50
2023-09-01T05:43:24.024Z,15.60
2023-09-01T05:45:50.743Z,15.60
2023-09-01T05:48:17.384Z,15.60
2023-09-01T05:50:45.081Z,15.60
2023-09-01T05:53:11.852Z,15.70
2023-09-01T05:55:38.734Z,15.70
2023-09-01T05:58:05.390Z,15.70
2023-09-01T06:00:32.063Z,15.70
2023-09-01T06:02:59.324Z,15.60
2023-09-01T06:05:26.075Z,15.60
2023-09-01T06:07:52.939Z,15.70
2023-09-01T06:10:19.621Z,15.80
2023-09-01T06:12:46.257Z,15.90
2023-09-01T06:15:13.061Z,15.90
2023-09-01T06:17:46.734Z,15.90
2023-09-01T06:20:18.369Z,15.90
2023-09-01T06:22:46.998Z,16.00
2023-09-01T06:25:13.686Z,16.00
2023-09-01T06:27:40.333Z,16.10
2023-09-01T06:30:07.613Z,16.10
2023-09-01T06:32:34.589Z,16.20
2023-09-01T06:35:01.387Z,16.30
2023-09-01T06:37:28.096Z,16.30
2023-09-01T06:39:54.788Z,16.40
2023-09-01T06:42:21.655Z,16.40
2023-09-01T06:44:49.006Z,16.40
2023-09-01T06:47:15.855Z,16.30
2023-09-01T06:49:42.604Z,16.30
2023-09-01T06:52:09.298Z,16.40
2023-09-01T06:54:35.950Z,16.40
2023-09-01T06:57:02.644Z,16.40
2023-09-01T06:59:29.358Z,16.50
2023-09-01T07:01:56.086Z,16.60
2023-09-01T07:04:22.913Z,16.70
2023-09-01T07:06:49.666Z,16.70
2023-09-01T07:09:16.637Z,16.70
2023-09-01T07:11:43.403Z,16.80
2023-09-01T07:14:10.088Z,17.00
2023-09-01T07:16:36.732Z,17.10
2023-09-01T07:19:03.521Z,17.30
2023-09-01T07:21:30.278Z,17.40
2023-09-01T07:23:57.166Z,17.60
2023-09-01T07:26:23.849Z,17.60
2023-09-01T07:28:50.566Z,17.70
2023-09-01T07:31:17.346Z,17.80
2023-09-01T07:33:44.183Z,17.80
2023-09-01T07:36:11.751Z,18.00
2023-09-01T07:38:38.861Z,18.10
2023-09-01T07:41:05.824Z,18.20
2023-09-01T07:43:32.554Z,18.20
2023-09-01T07:45:59.284Z,18.20
2023-09-01T07:48:26.559Z,18.10
2023-09-01T07:50:54.235Z,18.20
2023-09-01T07:53:21.168Z,18.20
2023-09-01T07:55:48.117Z,18.40
2023-09-01T08:01:04.556Z,18.70
2023-09-01T08:03:33.026Z,18.90
2023-09-01T08:03:53.002Z,18.60
2023-09-01T08:06:00.580Z,19.00
2023-09-01T08:08:27.730Z,19.00
2023-09-01T08:10:55.370Z,18.90
2023-09-01T08:13:23.326Z,18.90
2023-09-01T08:15:50.331Z,18.80
2023-09-01T08:18:18.422Z,18.80
2023-09-01T08:20:45.343Z,18.80
2023-09-01T08:23:12.201Z,18.90
2023-09-01T08:25:38.864Z,19.10
2023-09-01T08:28:05.671Z,19.10
2023-09-01T08:30:32.331Z,19.10
2023-09-01T08:32:59.042Z,19.10
2023-09-01T08:35:25.716Z,19.10
2023-09-01T08:37:52.569Z,19.20
2023-09-01T08:40:19.863Z,19.30
2023-09-01T08:42:51.856Z,19.40
2023-09-01T08:45:22.901Z,19.50
2023-09-01T08:47:54.449Z,19.50
2023-09-01T08:50:25.971Z,19.50
2023-09-01T08:52:53.854Z,19.60
2023-09-01T08:55:43.129Z,19.60
2023-09-01T09:01:00.537Z,19.70
2023-09-01T09:01:20.161Z,19.80
2023-09-01T09:09:57.616Z,20.00
2023-09-01T09:12:45.169Z,20.00
2023-09-01T09:15:53.127Z,20.10
2023-09-01T09:18:30.333Z,20.20
2023-09-01T09:20:57.339Z,20.20
2023-09-01T09:23:41.002Z,20.20
2023-09-01T09:29:53.890Z,20.30
2023-09-01T09:31:56.867Z,20.30
2023-09-01T09:34:24.035Z,20.30
2023-09-01T09:36:52.147Z,20.30
2023-09-01T09:39:28.897Z,20.30
2023-09-01T09:41:59.898Z,20.40
2023-09-01T09:44:35.836Z,20.50
2023-09-01T09:47:04.322Z,20.50
2023-09-01T09:49:56.040Z,20.50
2023-09-01T09:53:16.533Z,20.60
2023-09-01T09:59:12.220Z,20.70
2023-09-01T10:01:44.750Z,20.70
2023-09-01T10:04:08.766Z,20.60
2023-09-01T10:04:12.012Z,20.80
2023-09-01T10:06:40.498Z,20.90
2023-09-01T10:09:08.428Z,20.90
2023-09-01T10:11:35.086Z,21.10
2023-09-01T10:14:03.754Z,21.20
2023-09-01T10:16:31.225Z,21.30
2023-09-01T10:21:52.766Z,21.20
2023-09-01T10:22:00.965Z,21.30
2023-09-01T10:24:19.778Z,21.30
2023-09-01T10:27:06.080Z,21.20
2023-09-01T10:29:32.849Z,21.30
2023-09-01T10:32:14.827Z,21.20
2023-09-01T10:34:41.542Z,21.30
2023-09-01T10:37:28.048Z,21.40
2023-09-01T10:39:55.331Z,21.50
2023-09-01T10:42:40.983Z,21.50
2023-09-01T10:45:07.606Z,21.40
2023-09-01T10:47:35.662Z,21.40
2023-09-01T10:50:04.909Z,21.40
2023-09-01T10:52:33.020Z,21.50
2023-09-01T10:55:07.233Z,21.30
2023-09-01T10:57:40.713Z,21.30
2023-09-01T11:00:27.201Z,21.50
2023-09-01T11:02:54.397Z,21.60
2023-09-01T11:05:39.965Z,21.50
2023-09-01T11:08:09.999Z,21.80
2023-09-01T11:10:39.292Z,21.90
2023-09-01T11:13:18.933Z,22.00
2023-09-01T11:15:50.133Z,22.20
2023-09-01T11:18:18.441Z,22.20
2023-09-01T11:20:45.866Z,22.10
2023-09-01T11:23:12.567Z,22.10
2023-09-01T11:25:39.428Z,22.00
2023-09-01T11:28:06.332Z,22.20
2023-09-01T11:30:33.046Z,22.10
2023-09-01T11:33:10.324Z,22.20
2023-09-01T11:35:37.004Z,22.40
2023-09-01T11:38:03.814Z,22.40
2023-09-01T11:40:31.968Z,22.30
2023-09-01T11:42:59.759Z,22.20
2023-09-01T11:45:26.496Z,22.40
2023-09-01T11:47:56.253Z,22.20
2023-09-01T11:50:23.135Z,22.30
2023-09-01T11:52:57.508Z,22.40
2023-09-01T11:55:34.482Z,22.40
2023-09-01T11:58:01.331Z,22.60
2023-09-01T12:00:33.611Z,22.50
2023-09-01T12:03:00.812Z,22.60
2023-09-01T12:05:31.206Z,22.70
2023-09-01T12:07:58.424Z,22.50
2023-09-01T12:10:28.442Z,22.60
2023-09-01T12:13:13.946Z,22.70
2023-09-01T12:15:57.419Z,22.60
2023-09-01T12:18:27.894Z,22.70
2023-09-01T12:20:54.723Z,22.70
2023-09-01T12:23:27.549Z,22.70
2023-09-01T12:25:54.330Z,22.60
2023-09-01T12:28:20.999Z,22.50
2023-09-01T12:30:47.739Z,22.60
2023-09-01T12:33:14.763Z,22.50
2023-09-01T12:35:42.171Z,22.70
2023-09-01T12:38:08.934Z,22.80
2023-09-01T12:40:35.948Z,22.80
2023-09-01T12:43:03.731Z,22.80
2023-09-01T12:45:30.696Z,22.90
2023-09-01T12:47:57.731Z,22.80
2023-09-01T12:50:24.529Z,22.80
2023-09-01T12:52:51.270Z,22.70
2023-09-01T12:55:17.988Z,22.80
2023-09-01T12:57:44.629Z,22.80
2023-09-01T13:00:13.070Z,22.70
2023-09-01T13:02:39.770Z,22.80
2023-09-01T13:05:08.448Z,23.00
2023-09-01T13:07:36.766Z,23.00
2023-09-01T13:10:03.944Z,23.20
2023-09-01T13:12:30.617Z,23.30
2023-09-01T13:14:59.107Z,23.40
2023-09-01T13:17:26.996Z,23.30
2023-09-01T13:19:53.859Z,23.30
2023-09-01T13:22:20.539Z,23.20
2023-09-01T13:24:47.207Z,23.10
2023-09-01T13:27:13.876Z,23.10
2023-09-01T13:29:40.529Z,23.10
2023-09-01T13:32:07.218Z,23.10
2023-09-01T13:34:35.610Z,23.20
2023-09-01T13:37:04.208Z,23.10
2023-09-01T13:39:30.887Z,23.00
2023-09-01T13:41:57.579Z,23.20
2023-09-01T13:44:24.261Z,23.30
2023-09-01T13:46:51.068Z,23.30
2023-09-01T13:49:20.452Z,23.30
2023-09-01T13:51:47.183Z,23.40
2023-09-01T13:54:13.893Z,23.30
2023-09-01T13:56:40.775Z,23.40
2023-09-01T13:59:07.489Z,23.50
2023-09-01T14:01:34.235Z,23.40
2023-09-01T14:04:01.077Z,23.30
2023-09-01T14:06:27.774Z,23.50
2023-09-01T14:08:54.462Z,23.50
2023-09-01T14:11:21.146Z,23.50
2023-09-01T14:13:47.793Z,23.40
2023-09-01T14:16:14.640Z,23.40
2023-09-01T14:18:42.988Z,23.40
2023-09-01T14:21:09.822Z,23.40
2023-09-01T14:23:36.652Z,23.50
2023-09-01T14:26:03.689Z,23.50
2023-09-01T14:28:31.467Z,23.40
2023-09-01T14:30:59.598Z,23.40
2023-09-01T14:33:33.873Z,23.50
2023-09-01T14:36:08.409Z,23.40
2023-09-01T14:38:35.151Z,23.40
2023-09-01T14:41:01.816Z,23.40
2023-09-01T14:43:29.475Z,23.40
2023-09-01T14:45:56.202Z,23.40
2023-09-01T14:48:22.991Z,23.40
2023-09-01T14:50:49.922Z,23.50
2023-09-01T14:53:17.105Z,23.50
2023-09-01T14:55:44.027Z,23.60
2023-09-01T14:58:10.705Z,23.50
2023-09-01T15:00:37.497Z,23.60
2023-09-01T15:03:04.407Z,23.60
2023-09-01T15:05:31.134Z,23.50
2023-09-01T15:07:57.897Z,23.50
2023-09-01T15:10:24.766Z,23.50
2023-09-01T15:12:51.441Z,23.40
2023-09-01T15:15:18.127Z,23.40
2023-09-01T15:17:44.947Z,23.40
2023-09-01T15:20:13.343Z,23.40
2023-09-01T15:22:40.017Z,23.50
2023-09-01T15:25:06.959Z,23.60
2023-09-01T15:27:33.624Z,23.50
2023-09-01T15:30:00.327Z,23.50
2023-09-01T15:32:27.670Z,23.30
2023-09-01T15:35:04.536Z,23.20
2023-09-01T15:37:40.965Z,23.10
2023-09-01T15:40:07.917Z,23.10
2023-09-01T15:42:34.628Z,23.10
2023-09-01T15:45:01.266Z,23.10
2023-09-01T15:47:27.960Z,23.10
2023-09-01T15:49:54.652Z,23.10
2023-09-01T15:52:21.316Z,23.10
2023-09-01T15:54:48.399Z,23.10
2023-09-01T15:57:15.095Z,23.10
2023-09-01T15:59:43.657Z,23.10
2023-09-01T16:02:10.467Z,23.10
2023-09-01T16:04:37.233Z,23.00
2023-09-01T16:07:04.106Z,23.00
2023-09-01T16:09:30.808Z,23.00
2023-09-01T16:11:57.595Z,23.00
2023-09-01T16:14:24.257Z,23.00
2023-09-01T16:16:54.473Z,22.90
2023-09-01T16:19:22.308Z,22.90
2023-09-01T16:21:51.408Z,22.80
2023-09-01T16:24:18.313Z,22.70
2023-09-01T16:26:44.943Z,22.60
2023-09-01T16:29:11.659Z,22.40
2023-09-01T16:31:39.377Z,22.30
2023-09-01T16:34:06.559Z,22.20
2023-09-01T16:36:33.212Z,22.10
2023-09-01T16:38:59.876Z,22.00
2023-09-01T16:41:26.523Z,22.00
2023-09-01T16:43:53.498Z,21.90
2023-09-01T16:46:20.298Z,21.80
2023-09-01T16:48:46.984Z,21.70
2023-09-01T16:51:13.638Z,21.50
2023-09-01T16:53:40.572Z,21.50
2023-09-01T16:56:07.490Z,21.40
2023-09-01T16:58:34.183Z,21.40
2023-09-01T17:01:01.279Z,21.30
2023-09-01T17:03:28.116Z,21.30
2023-09-01T17:05:54.859Z,21.30
2023-09-01T17:08:21.778Z,21.20
2023-09-01T17:10:51.211Z,21.20
2023-09-01T17:13:18.200Z,21.10
2023-09-01T17:15:45.069Z,21.00
2023-09-01T17:18:11.772Z,20.90
2023-09-01T17:20:54.773Z,20.90
2023-09-01T17:23:21.574Z,20.80
2023-09-01T17:25:48.229Z,20.80
2023-09-01T17:28:14.947Z,20.70
2023-09-01T17:30:41.717Z,20.70
2023-09-01T17:33:08.594Z,20.60
2023-09-01T17:35:35.322Z,20.50
2023-09-01T17:38:01.943Z,20.50
2023-09-01T17:40:28.636Z,20.50
2023-09-01T17:42:55.275Z,20.50
2023-09-01T17:45:21.950Z,20.50
2023-09-01T17:47:48.771Z,20.40
2023-09-01T17:50:15.483Z,20.40
2023-09-01T17:52:42.139Z,20.30
2023-09-01T17:55:08.911Z,20.30
2023-09-01T17:57:35.572Z,20.20
2023-09-01T18:00:04.989Z,20.10
2023-09-01T18:02:36.238Z,20.00
2023-09-01T18:05:04.723Z,20.00
2023-09-01T18:07:31.409Z,19.90
2023-09-01T18:09:59.534Z,19.80
2023-09-01T18:12:26.441Z,19.70
2023-09-01T18:14:53.819Z,19.60
2023-09-01T18:17:21.065Z,19.50
2023-09-01T18:19:47.906Z,19.50
2023-09-01T18:22:19.187Z,19.40
2023-09-01T18:24:46.178Z,19.40
2023-09-01T18:27:19.152Z,19.30
2023-09-01T18:29:45.825Z,19.20
2023-09-01T18:32:14.497Z,19.10
2023-09-01T18:34:43.578Z,19.10
2023-09-01T18:37:11.074Z,19.00
2023-09-01T18:39:37.724Z,19.00
2023-09-01T18:42:21.308Z,18.90
2023-09-01T18:44:49.019Z,18.80
2023-09-01T18:47:22.360Z,18.70
2023-09-01T18:49:50.311Z,18.60
2023-09-01T18:52:23.648Z,18.60
2023-09-01T18:54:55.598Z,18.60
2023-09-01T18:57:27.979Z,18.60
2023-09-01T19:00:06.007Z,18.50
2023-09-01T19:02:36.903Z,18.50
2023-09-01T19:05:14.559Z,18.40
2023-09-01T19:07:41.198Z,18.30
2023-09-01T19:10:17.300Z,18.30
2023-09-01T19:12:47.388Z,18.30
2023-09-01T19:15:18.849Z,18.30
2023-09-01T19:18:00.170Z,18.20
2023-09-01T19:23:38.966Z,18.20
2023-09-01T19:29:24.064Z,18.00
2023-09-01T19:31:53.611Z,18.00
2023-09-01T19:34:28.278Z,17.90
2023-09-01T19:36:55.212Z,17.90
2023-09-01T19:39:24.165Z,17.80
2023-09-01T19:42:01.992Z,17.80
2023-09-01T19:44:35.950Z,17.70
2023-09-01T19:47:12.866Z,17.70
2023-09-01T19:49:39.676Z,17.70
2023-09-01T19:52:06.370Z,17.60
2023-09-01T19:54:40.244Z,17.60
2023-09-01T19:57:18.763Z,17.60
2023-09-01T19:59:46.609Z,17.50
2023-09-01T20:02:18.944Z,17.50
2023-09-01T20:04:54.696Z,17.50
2023-09-01T20:07:31.624Z,17.40
2023-09-01T20:10:05.384Z,17.40
2023-09-01T20:12:34.792Z,17.30
2023-09-01T20:15:13.225Z,17.30
2023-09-01T20:17:39.972Z,17.20
2023-09-01T20:20:07.848Z,17.20
2023-09-01T20:22:36.681Z,17.10
2023-09-01T20:25:04.628Z,17.10
2023-09-01T20:27:33.755Z,17.00
2023-09-01T20:30:05.430Z,17.00
2023-09-01T20:32:34.284Z,17.00
2023-09-01T20:35:01.446Z,17.00
2023-09-01T20:37:28.213Z,17.00
2023-09-01T20:39:55.918Z,17.00
2023-09-01T20:42:22.862Z,16.90
2023-09-01T20:44:51.266Z,16.90
2023-09-01T20:47:18.240Z,16.80
2023-09-01T20:50:09.564Z,16.80
2023-09-01T20:52:39.000Z,16.80
2023-09-01T20:55:34.827Z,16.80
2023-09-01T21:01:28.335Z,16.70
2023-09-01T21:03:58.575Z,16.60
2023-09-01T21:04:20.226Z,16.70
2023-09-01T21:06:25.247Z,16.60
2023-09-01T21:08:52.105Z,16.60
2023-09-01T21:11:18.785Z,16.50
2023-09-01T21:13:45.471Z,16.50
2023-09-01T21:16:16.457Z,16.50
2023-09-01T21:18:55.273Z,16.40
2023-09-01T21:21:22.028Z,16.40
2023-09-01T21:23:53.661Z,16.40
2023-09-01T21:26:20.330Z,16.40
2023-09-01T21:28:48.079Z,16.40
2023-09-01T21:31:14.827Z,16.40
2023-09-01T21:33:44.420Z,16.30
2023-09-01T21:36:24.285Z,16.20
2023-09-01T21:38:59.140Z,16.20
2023-09-01T21:41:28.421Z,16.10
2023-09-01T21:43:57.608Z,16.10
2023-09-01T21:46:26.637Z,16.10
2023-09-01T21:48:55.933Z,16.10
2023-09-01T21:51:28.934Z,16.10
2023-09-01T21:53:58.185Z,16.20
2023-09-01T21:56:24.975Z,16.10
2023-09-01T21:58:51.670Z,16.20
2023-09-01T22:01:18.420Z,16.10
2023-09-01T22:03:46.439Z,16.10
2023-09-01T22:06:15.811Z,16.10
2023-09-01T22:08:45.564Z,16.20
2023-09-01T22:11:12.507Z,16.10
2023-09-01T22:13:41.088Z,16.10
2023-09-01T22:16:10.275Z,16.10
2023-09-01T22:18:37.876Z,16.10
2023-09-01T22:21:09.060Z,16.10
2023-09-01T22:23:35.846Z,16.00
2023-09-01T22:26:05.444Z,16.00
2023-09-01T22:28:33.785Z,15.90
2023-09-01T22:31:14.613Z,15.80
2023-09-01T22:33:41.541Z,15.80
2023-09-01T22:36:10.756Z,15.80
2023-09-01T22:38:37.554Z,15.70
2023-09-01T22:41:04.327Z,15.70
2023-09-01T22:43:37.779Z,15.70
2023-09-01T22:46:04.486Z,15.60
2023-09-01T22:48:51.443Z,15.70
2023-09-01T22:51:23.463Z,15.60
2023-09-01T22:53:50.156Z,15.60
2023-09-01T22:56:16.821Z,15.60
2023-09-01T22:58:44.743Z,15.60
2023-09-01T23:01:11.651Z,15.60
2023-09-01T23:03:38.458Z,15.60
2023-09-01T23:06:07.469Z,15.60
2023-09-01T23:08:34.221Z,15.50
2023-09-01T23:11:01.814Z,15.50
2023-09-01T23:13:30.105Z,15.60
2023-09-01T23:16:00.084Z,15.60
2023-09-01T23:18:26.944Z,15.50
2023-09-01T23:20:59.404Z,15.50
2023-09-01T23:23:26.527Z,15.40
2023-09-01T23:25:53.223Z,15.40
2023-09-01T23:28:19.918Z,15.40
2023-09-01T23:30:49.538Z,15.40
2023-09-01T23:33:16.480Z,15.30
2023-09-01T23:35:47.403Z,15.30
2023-09-01T23:38:14.119Z,15.30
2023-09-01T23:40:41.884Z,15.20
2023-09-01T23:43:08.726Z,15.20
2023-09-01T23:45:35.528Z,15.20
2023-09-01T23:48:02.267Z,15.10
2023-09-01T23:50:29.141Z,15.00
2023-09-01T23:52:55.803Z,15.00
2023-09-01T23:55:22.520Z,15.00
2023-09-01T23:57:51.325Z,15.00
